Impacts TAF Board
For situational awareness. Not to be used for flight planning purposes.
IDs:

KCNM - Carlsbad/Cavern City, NM, US

Issued at 1720 UTC 02 Aug 2021
Updated at 2139 UTC 02 Aug 2021
Potential Impact None Slight Moderate High
Time2053Z 02/22Z 02/23Z 03/00Z 03/01Z 03/02Z 03/03Z 03/04Z 03/05Z 03/06Z 03/07Z 03/08Z 03/09Z 03/10Z>>
Type OBS PRVL PRVL PRVL PRVL PRVL PRVL PRVL PRVL PRVL PRVL PRVL PRVL PRVL
VIS 10 >6 >6 >6 >6 >6 >6 >6 >6 >6 >6 >6 >6 >6
CIG 38 40 40 40 40 40 -- -- -- -- -- -- -- --
Cover BKN OVC OVC OVC OVC OVC SCT SCT SCT SCT SCT SCT SCT SCT
FltCat VFR VFR VFR VFR VFR VFR VFR VFR VFR VFR VFR VFR VFR VFR
WX -- -- -- -- -- -- -- -- -- -- -- -- -- --
WDir 20 30 30 30 30 30 150 150 150 150 150 150 150 150
WSpd 7 9 9 9 9 9 8 8 8 8 8 8 8 8
WGst -- -- -- -- -- -- -- -- -- -- -- -- -- --
Raw TAF
KCNM 021720Z 0218/0318 03009KT P6SM OVC040
  FM030300 15008KT P6SM SCT080


Raw METAR
KCNM 022053Z AUTO 02007KT 10SM BKN038 BKN070 27/17 A3020 RMK AO2 SLP177 T02670172 58019
KCNM 021953Z AUTO 06007KT 9SM FEW026 BKN055 BKN070 25/18 A3023 RMK AO2 SLP191 T02500178
KCNM 021853Z AUTO 03009KT 8SM FEW027 FEW035 BKN070 24/18 A3025 RMK AO2 SLP194 T02440183

METAR Board
Radar Display
Forecast Discussion
For situational awareness. Not to be used for flight planning purposes.